^^
Atglen Borough Observatory Historical Data
 
Daily Summary for August 20, 2019 Units:  English    Metric   Both
Daily Weekly Monthly Yearly Custom
  Current: High: Low: Average:
Temperature: 85.5 °F 86.9 °F 67.8 °F 73 °F
Dew Point: 71.4 °F 73.4 °F 66.9 °F 69.2 °F
Humidity: 63% 97% 59% 89%
Wind Speed: 0mph 8.9mph 0mph 0.4mph
Wind Gust: 3mph 9mph - -
WindCalm - - ENE
Pressure: 30.07 in 30.08 in 30.00 in -
Precipitation: 0 in      
Historical Graphs
 
 
Tabular Data for August 20, 2019
Time Temperature Dew Point Pressure Wind Wind Speed Wind Gust Humidity Rainfall Rate (Hourly)
00:00 71.1 °F 69.3 °F 30.01 in Calm     94% 0 in
00:05 71.1 °F 69.3 °F 30.00 in Calm     94% 0 in
00:10 71.1 °F 69.3 °F 30.00 in Calm     94% 0 in
00:15 71.1 °F 69.3 °F 30.01 in Calm     94% 0 in
00:20 71.1 °F 69.3 °F 30.01 in Calm     94% 0 in
00:25 70.9 °F 69.1 °F 30.01 in Calm     94% 0 in
00:30 70.9 °F 69.4 °F 30.01 in Calm     95% 0 in
00:35 70.9 °F 69.4 °F 30.01 in Calm     95% 0 in
00:40 70.7 °F 69.3 °F 30.01 in Calm     95% 0 in
00:45 70.5 °F 69.1 °F 30.01 in Calm     95% 0 in
00:50 70.5 °F 69.1 °F 30.01 in Calm     95% 0 in
00:55 70.3 °F 68.9 °F 30.01 in Calm     95% 0 in
01:00 70.3 °F 68.9 °F 30.00 in Calm     95% 0 in
01:05 70.3 °F 68.9 °F 30.00 in Calm     95% 0 in
01:10 70.3 °F 68.9 °F 30.00 in Calm     95% 0 in
01:15 70.3 °F 68.9 °F 30.00 in Calm     95% 0 in
01:20 70.2 °F 68.7 °F 30.00 in Calm     95% 0 in
01:25 70.2 °F 68.7 °F 30.00 in Calm     95% 0 in
01:30 70 °F 68.5 °F 30.00 in Calm     95% 0 in
01:35 70 °F 68.5 °F 30.00 in Calm     95% 0 in
01:40 70 °F 68.5 °F 30.01 in Calm     95% 0 in
01:45 70 °F 68.5 °F 30.01 in Calm     95% 0 in
01:50 69.8 °F 68.5 °F 30.01 in Calm     96% 0 in
01:55 69.6 °F 68.4 °F 30.01 in Calm     96% 0 in
02:00 69.6 °F 68.4 °F 30.01 in Calm     96% 0 in
02:05 69.6 °F 68.4 °F 30.01 in Calm     96% 0 in
02:10 69.4 °F 68.2 °F 30.01 in Calm     96% 0 in
02:15 69.4 °F 68.2 °F 30.01 in Calm     96% 0 in
02:20 69.4 °F 68.2 °F 30.01 in Calm     96% 0 in
02:25 69.4 °F 68.2 °F 30.01 in Calm     96% 0 in
02:30 69.4 °F 68.2 °F 30.01 in Calm     96% 0 in
02:35 69.4 °F 68.2 °F 30.01 in Calm     96% 0 in
02:40 69.4 °F 68.2 °F 30.01 in Calm     96% 0 in
02:45 69.3 °F 68 °F 30.01 in Calm     96% 0 in
02:50 69.3 °F 68 °F 30.01 in Calm     96% 0 in
02:55 69.3 °F 68 °F 30.01 in Calm     96% 0 in
03:00 69.3 °F 68 °F 30.01 in Calm     96% 0 in
03:05 69.3 °F 68 °F 30.01 in Calm     96% 0 in
03:10 69.3 °F 68 °F 30.01 in Calm     96% 0 in
03:15 69.1 °F 67.8 °F 30.01 in Calm     96% 0 in
03:20 69.1 °F 67.8 °F 30.01 in Calm     96% 0 in
03:25 68.9 °F 67.6 °F 30.01 in Calm     96% 0 in
03:30 68.7 °F 67.5 °F 30.01 in Calm     96% 0 in
03:35 68.7 °F 67.5 °F 30.01 in Calm     96% 0 in
03:40 68.7 °F 67.5 °F 30.01 in Calm     96% 0 in
03:45 68.7 °F 67.5 °F 30.01 in Calm     96% 0 in
03:50 68.5 °F 67.3 °F 30.01 in Calm     96% 0 in
03:55 68.5 °F 67.6 °F 30.01 in Calm     97% 0 in
04:00 68.5 °F 67.6 °F 30.01 in Calm     97% 0 in
04:05 68.5 °F 67.6 °F 30.02 in Calm     97% 0 in
04:10 68.5 °F 67.6 °F 30.02 in Calm     97% 0 in
04:15 68.4 °F 67.5 °F 30.02 in Calm     97% 0 in
04:20 68.4 °F 67.5 °F 30.02 in Calm     97% 0 in
04:25 68.4 °F 67.5 °F 30.02 in Calm     97% 0 in
04:30 68.5 °F 67.6 °F 30.02 in Calm     97% 0 in
04:35 68.5 °F 67.6 °F 30.02 in Calm     97% 0 in
04:40 68.4 °F 67.5 °F 30.02 in Calm     97% 0 in
04:45 68.4 °F 67.5 °F 30.02 in Calm     97% 0 in
04:50 68.4 °F 67.5 °F 30.02 in Calm     97% 0 in
04:55 68.4 °F 67.5 °F 30.03 in Calm     97% 0 in
05:00 68.2 °F 67.3 °F 30.03 in Calm     97% 0 in
05:05 68.2 °F 67.3 °F 30.03 in Calm     97% 0 in
05:10 68.2 °F 67.3 °F 30.03 in Calm     97% 0 in
05:15 68.2 °F 67.3 °F 30.03 in Calm     97% 0 in
05:20 68.2 °F 67.3 °F 30.04 in Calm     97% 0 in
05:25 68.4 °F 67.5 °F 30.04 in Calm     97% 0 in
05:30 68.4 °F 67.5 °F 30.04 in Calm     97% 0 in
05:35 68.4 °F 67.5 °F 30.04 in Calm     97% 0 in
05:40 68.4 °F 67.5 °F 30.04 in Calm     97% 0 in
05:45 68.4 °F 67.5 °F 30.04 in Calm     97% 0 in
05:50 68.4 °F 67.5 °F 30.04 in Calm     97% 0 in
05:55 68.4 °F 67.5 °F 30.04 in Calm     97% 0 in
06:00 68.2 °F 67.3 °F 30.04 in Calm     97% 0 in
06:05 68.2 °F 67.3 °F 30.04 in Calm     97% 0 in
06:10 68 °F 67.1 °F 30.04 in Calm     97% 0 in
06:15 68 °F 67.1 °F 30.04 in Calm     97% 0 in
06:20 67.8 °F 66.9 °F 30.04 in Calm     97% 0 in
06:25 67.8 °F 66.9 °F 30.04 in Calm     97% 0 in
06:30 67.8 °F 66.9 °F 30.05 in Calm     97% 0 in
06:35 67.8 °F 66.9 °F 30.05 in Calm     97% 0 in
06:40 67.8 °F 66.9 °F 30.05 in Calm     97% 0 in
06:45 67.8 °F 66.9 °F 30.05 in Calm     97% 0 in
06:50 67.8 °F 66.9 °F 30.05 in Calm     97% 0 in
06:55 68 °F 67.1 °F 30.05 in Calm     97% 0 in
07:00 68 °F 67.1 °F 30.06 in Calm     97% 0 in
07:05 68.2 °F 67.3 °F 30.06 in Calm     97% 0 in
07:10 68.4 °F 67.5 °F 30.06 in Calm     97% 0 in
07:15 68.5 °F 67.6 °F 30.06 in Calm     97% 0 in
07:20 68.7 °F 67.8 °F 30.06 in Calm     97% 0 in
07:25 68.9 °F 68 °F 30.06 in Calm     97% 0 in
07:30 69.3 °F 68.4 °F 30.06 in Calm     97% 0 in
07:35 69.4 °F 68.5 °F 30.06 in Calm     97% 0 in
07:40 69.6 °F 68.7 °F 30.06 in Calm     97% 0 in
07:45 69.8 °F 68.9 °F 30.06 in Calm     97% 0 in
07:50 70 °F 68.7 °F 30.06 in Calm     96% 0 in
07:55 70.5 °F 69.3 °F 30.07 in Calm     96% 0 in
08:00 70.9 °F 69.6 °F 30.07 in Calm     96% 0 in
08:05 71.2 °F 69.8 °F 30.07 in Calm     95% 0 in
08:10 71.8 °F 70.3 °F 30.07 in Calm     95% 0 in
08:15 72.1 °F 70.3 °F 30.07 in Calm     94% 0 in
08:20 72.7 °F 70.9 °F 30.07 in Calm     94% 0 in
08:25 73 °F 70.9 °F 30.07 in Calm     93% 0 in
08:30 73.6 °F 71.1 °F 30.07 in Calm     92% 0 in
08:35 74.1 °F 71.2 °F 30.07 in Calm     91% 0 in
08:40 74.8 °F 71.8 °F 30.07 in Calm     90% 0 in
08:45 75.9 °F 72.1 °F 30.07 in Calm     88% 0 in
08:50 76.6 °F 71.4 °F 30.07 in Calm     84% 0 in
08:55 77.5 °F 71.6 °F 30.07 in Calm   2 mph 82% 0 in
09:00 78.3 °F 71.6 °F 30.07 in ENE 2 mph 2 mph 80% 0 in
09:05 78.6 °F 70.9 °F 30.07 in NE 8.9 mph 9 mph 77% 0 in
09:10 78.6 °F 70.9 °F 30.07 in NE 2.9 mph 5 mph 77% 0 in
09:15 78.8 °F 70.5 °F 30.07 in NE 2.9 mph 4 mph 76% 0 in
09:20 79 °F 70.7 °F 30.07 in ENE 0.9 mph 2 mph 76% 0 in
09:25 79.3 °F 70.7 °F 30.07 in NE 4 mph 6 mph 75% 0 in
09:30 79.7 °F 71.4 °F 30.07 in NE 2 mph 4 mph 76% 0 in
09:35 80.1 °F 71.4 °F 30.07 in NE 2.9 mph 7 mph 75% 0 in
09:40 80.4 °F 71.8 °F 30.07 in ENE 0.9 mph 2 mph 75% 0 in
09:45 80.6 °F 71.6 °F 30.07 in ENE 0.9 mph 5 mph 74% 0 in
09:50 81 °F 71.1 °F 30.07 in ENE 2 mph 5 mph 72% 0 in
09:55 81.3 °F 71.4 °F 30.07 in SSE 0.9 mph 5 mph 72% 0 in
10:00 81.5 °F 70.7 °F 30.07 in SSE 2 mph 4 mph 70% 0 in
10:05 81.5 °F 72.3 °F 30.07 in East 0.9 mph 4 mph 74% 0 in
10:10 81.9 °F 71.6 °F 30.07 in NE 4 mph 4 mph 71% 0 in
10:15 82.6 °F 71.8 °F 30.07 in SE 2 mph 7 mph 70% 0 in
10:20 82.8 °F 72.3 °F 30.07 in Calm   6 mph 71% 0 in
10:25 82.9 °F 71.8 °F 30.07 in SSE 0.9 mph 6 mph 69% 0 in
10:30 82.9 °F 71.8 °F 30.07 in SE 2 mph 4 mph 69% 0 in
10:35 83.1 °F 72 °F 30.07 in SE 2.9 mph 5 mph 69% 0 in
10:40 83.1 °F 71.4 °F 30.07 in SE 2 mph 4 mph 68% 0 in
10:45 83.5 °F 71.8 °F 30.07 in NE 4 mph 4 mph 68% 0 in
10:50 83.8 °F 71.8 °F 30.08 in NE 2.9 mph 4 mph 67% 0 in
10:55 84 °F 72 °F 30.08 in NE 2.9 mph 4 mph 67% 0 in
11:00 84.2 °F 73.4 °F 30.08 in NE 0.9 mph 3 mph 70% 0 in
11:05 84 °F 71.4 °F 30.08 in NE 0.9 mph 4 mph 66% 0 in
11:10 84.4 °F 72.1 °F 30.08 in NE 2 mph 4 mph 67% 0 in
11:15 84.6 °F 72.3 °F 30.07 in Calm   3 mph 67% 0 in
11:20 84.7 °F 71.6 °F 30.07 in Calm   2 mph 65% 0 in
11:25 85.3 °F 71.2 °F 30.07 in Calm   1 mph 63% 0 in
11:30 85.3 °F 71.8 °F 30.07 in Calm     64% 0 in
11:35 85.1 °F 71.1 °F 30.08 in Calm   2 mph 63% 0 in
11:40 86.2 °F 72.1 °F 30.08 in NE 2 mph 5 mph 63% 0 in
11:45 86 °F 70 °F 30.08 in NE 2 mph 2 mph 59% 0 in
11:50 85.3 °F 71.2 °F 30.07 in Calm   3 mph 63% 0 in
11:55 86.2 °F 73 °F 30.07 in Calm   3 mph 65% 0 in
12:00 86.9 °F 71.8 °F 30.07 in Calm   2 mph 61% 0 in
12:05 85.5 °F 71.4 °F 30.07 in Calm   3 mph 63% 0 in
Atglen Borough Observatory, Pennsylvania, USA
Compliments of Weather Underground - 2.75 mb